Date,TemperatureHighF,TemperatureAvgF,TemperatureLowF,DewpointHighF,DewpointAvgF,DewpointLowF,HumidityHigh,HumidityAvg,HumidityLow,PressureMaxIn,PressureMinIn,WindSpeedMaxMPH,WindSpeedAvgMPH,GustSpeedMaxMPH,PrecipitationSumIn
2013-2-1,54,43,34,45,40,33,98,90,69,30.32,30.22,5,1,0,0.00
2013-2-2,43,38,31,41,36,30,98,95,90,30.29,30.24,2,0,0,0.00
2013-2-3,49,44,38,45,41,37,98,91,80,30.30,30.22,2,0,0,0.00
2013-2-4,54,45,38,44,41,37,98,87,67,30.22,29.93,3,0,0,0.00
2013-2-5,53,47,43,48,43,40,95,86,72,30.04,29.92,8,3,0,0.00
2013-2-6,53,46,42,43,41,38,96,85,68,30.09,29.83,6,3,0,0.00
2013-2-7,47,39,32,40,36,30,97,88,72,30.09,29.92,5,1,0,0.00
2013-2-8,46,36,30,39,34,29,98,91,72,30.27,30.09,2,0,0,0.00
2013-2-9,47,42,35,42,38,34,96,86,71,30.28,30.24,2,0,0,0.00
2013-2-10,46,44,42,43,42,39,97,93,75,30.32,30.27,2,0,0,0.00
2013-2-11,51,46,41,42,39,35,90,78,63,30.38,30.31,3,1,0,0.00
2013-2-12,56,49,44,49,45,42,94,86,70,30.47,30.37,3,1,4,0.00
2013-2-13,54,50,46,48,44,41,90,82,67,30.48,30.41,4,1,6,0.00
2013-2-14,61,46,35,45,40,34,98,80,54,30.53,30.43,6,1,0,0.00
2013-2-15,57,46,41,46,42,39,96,85,66,30.43,30.21,5,2,0,0.00
2013-2-16,54,44,39,46,40,35,99,88,67,30.27,30.20,6,1,0,0.00
2013-2-17,49,41,35,38,35,32,95,80,57,30.27,30.07,2,0,0,0.00
2013-2-18,49,40,32,40,35,30,95,84,63,30.07,29.71,5,1,0,0.00
2013-2-19,54,43,37,42,38,34,96,84,60,29.97,29.64,3,1,0,0.00
2013-2-20,50,41,34,41,37,32,96,85,60,30.10,29.97,5,1,0,0.00
2013-2-21,46,40,32,42,37,31,98,90,77,30.21,30.10,5,2,0,0.00
2013-2-22,45,43,37,44,41,35,95,91,87,30.18,29.92,11,5,0,0.00
2013-2-23,49,40,34,42,36,32,97,87,59,30.43,30.09,5,1,0,0.00
2013-2-24,54,42,33,38,35,31,96,77,47,30.43,30.08,6,2,0,0.00
2013-2-25,51,42,36,42,39,33,95,87,59,30.38,30.05,6,2,0,0.00
2013-2-26,51,39,29,40,34,28,98,83,58,30.38,30.22,3,0,0,0.00
2013-2-27,52,45,37,46,41,35,96,87,69,30.29,30.21,4,0,0,0.00
2013-2-28,58,52,47,53,49,46,96,90,75,30.43,30.19,6,2,0,0.00